createdAt,value
2022-09-12T00:01:53.346Z,100942.97
2022-09-12T00:04:23.799Z,100942.34
2022-09-12T00:06:50.773Z,100941.72
2022-09-12T00:09:17.595Z,100942.16
2022-09-12T00:11:46.460Z,100943.66
2022-09-12T00:14:18.665Z,100954.03
2022-09-12T00:16:45.513Z,100953.84
2022-09-12T00:19:12.722Z,100944.25
2022-09-12T00:21:40.807Z,100946.38
2022-09-12T00:24:08.505Z,100947.22
2022-09-12T00:26:35.562Z,100942.34
2022-09-12T00:29:02.508Z,100946.56
2022-09-12T00:31:29.422Z,100957.34
2022-09-12T00:33:58.915Z,100952.72
2022-09-12T00:36:28.147Z,100952.72
2022-09-12T00:38:54.950Z,100956.94
2022-09-12T00:41:33.619Z,100956.94
2022-09-12T00:44:21.851Z,100955.47
2022-09-12T00:47:05.327Z,100957.78
2022-09-12T00:49:50.203Z,100959.50
2022-09-12T00:52:31.264Z,100962.84
2022-09-12T00:55:20.118Z,100952.50
2022-09-12T00:58:02.011Z,100959.47
2022-09-12T01:00:29.083Z,100955.66
2022-09-12T01:03:00.221Z,100945.47
2022-09-12T01:05:29.915Z,100952.03
2022-09-12T01:07:57.320Z,100945.47
2022-09-12T01:10:24.776Z,100945.47
2022-09-12T01:12:51.676Z,100948.22
2022-09-12T01:15:18.526Z,100950.16
2022-09-12T01:17:54.334Z,100944.66
2022-09-12T01:20:24.090Z,100945.06
2022-09-12T01:23:35.306Z,100937.47
2022-09-12T01:26:10.655Z,100934.09
2022-09-12T01:29:03.866Z,100929.66
2022-09-12T01:31:57.956Z,100927.94
2022-09-12T01:34:32.061Z,100931.53
2022-09-12T01:36:58.984Z,100937.03
2022-09-12T01:39:51.082Z,100929.88
2022-09-12T01:42:35.724Z,100929.22
2022-09-12T01:45:17.546Z,100930.72
2022-09-12T01:48:05.227Z,100924.19
2022-09-12T01:50:35.956Z,100929.94
2022-09-12T01:53:10.015Z,100934.59
2022-09-12T01:55:50.049Z,100936.31
2022-09-12T01:58:29.797Z,100935.06
2022-09-12T02:01:04.888Z,100932.97
2022-09-12T02:03:39.683Z,100927.69
2022-09-12T02:06:13.245Z,100930.66
2022-09-12T02:08:49.281Z,100927.91
2022-09-12T02:11:16.245Z,100934.22
2022-09-12T02:13:47.806Z,100934.03
2022-09-12T02:16:25.411Z,100938.03
2022-09-12T02:19:01.938Z,100922.78
2022-09-12T02:21:33.277Z,100932.28
2022-09-12T02:24:04.747Z,100936.94
2022-09-12T02:26:38.621Z,100935.22
2022-09-12T02:29:06.087Z,100932.88
2022-09-12T02:31:44.712Z,100937.13
2022-09-12T02:34:23.449Z,100928.84
2022-09-12T02:37:19.221Z,100927.81
2022-09-12T02:39:47.044Z,100937.13
2022-09-12T02:42:13.999Z,100929.47
2022-09-12T02:44:41.674Z,100936.66
2022-09-12T02:47:18.174Z,100936.66
2022-09-12T02:49:45.641Z,100927.81
2022-09-12T02:52:12.447Z,100928.44
2022-09-12T02:54:39.534Z,100929.09
2022-09-12T02:57:22.622Z,100926.34
2022-09-12T02:59:56.196Z,100923.41
2022-09-12T03:02:54.860Z,100920.25
2022-09-12T03:05:21.734Z,100928.72
2022-09-12T03:07:57.067Z,100912.66
2022-09-12T03:11:00.673Z,100920.25
2022-09-12T03:13:42.720Z,100915.19
2022-09-12T03:16:19.469Z,100920.06
2022-09-12T03:18:48.939Z,100916.47
2022-09-12T03:21:45.554Z,100919.22
2022-09-12T03:24:20.979Z,100924.09
2022-09-12T03:26:55.246Z,100924.28
2022-09-12T03:29:25.053Z,100923.69
2022-09-12T03:31:55.082Z,100930.44
2022-09-12T03:34:23.710Z,100923.25
2022-09-12T03:36:51.184Z,100932.81
2022-09-12T03:39:18.528Z,100931.09
2022-09-12T03:41:45.192Z,100947.78
2022-09-12T03:44:11.986Z,100947.38
2022-09-12T03:46:38.697Z,100943.97
2022-09-12T03:49:08.591Z,100942.50
2022-09-12T03:51:35.505Z,100941.00
2022-09-12T03:54:02.365Z,100947.97
2022-09-12T03:56:29.383Z,100953.25
2022-09-12T03:58:56.202Z,100945.63
2022-09-12T04:01:23.425Z,100937.16
2022-09-12T04:03:51.753Z,100942.47
2022-09-12T04:06:23.325Z,100939.72
2022-09-12T04:08:55.113Z,100942.25
2022-09-12T04:11:23.683Z,100943.09
2022-09-12T04:13:50.954Z,100944.78
2022-09-12T04:16:18.710Z,100943.72
2022-09-12T04:18:46.110Z,100952.00
2022-09-12T04:21:15.630Z,100948.16
2022-09-12T04:23:43.021Z,100953.66
2022-09-12T04:26:10.242Z,100954.53
2022-09-12T04:28:38.345Z,100949.00
2022-09-12T04:31:11.620Z,100948.38
2022-09-12T04:33:38.347Z,100961.50
2022-09-12T04:36:07.111Z,100959.16
2022-09-12T04:38:34.895Z,100972.31
2022-09-12T04:41:01.877Z,100965.31
2022-09-12T04:43:28.586Z,100965.53
2022-09-12T04:45:55.348Z,100964.72
2022-09-12T04:48:22.067Z,100959.03
2022-09-12T04:50:48.908Z,100960.69
2022-09-12T04:53:15.779Z,100966.63
2022-09-12T04:55:42.449Z,100961.75
2022-09-12T04:58:09.244Z,100955.81
2022-09-12T05:00:36.221Z,100960.91
2022-09-12T05:03:03.158Z,100964.09
2022-09-12T05:05:29.947Z,100961.53
2022-09-12T05:07:57.852Z,100963.88
2022-09-12T05:10:24.509Z,100963.22
2022-09-12T05:12:51.477Z,100969.34
2022-09-12T05:15:18.173Z,100972.75
2022-09-12T05:17:44.902Z,100975.91
2022-09-12T05:20:13.074Z,100980.13
2022-09-12T05:22:42.242Z,100980.31
2022-09-12T05:25:09.486Z,100977.78
2022-09-12T05:27:36.264Z,100975.91
2022-09-12T05:30:02.994Z,100972.28
2022-09-12T05:32:32.314Z,100987.72
2022-09-12T05:34:59.316Z,100982.00
2022-09-12T05:37:26.193Z,100985.63
2022-09-12T05:39:52.968Z,100988.38
2022-09-12T05:42:19.902Z,100995.53
2022-09-12T05:44:46.640Z,100998.94
2022-09-12T05:47:13.256Z,100997.91
2022-09-12T05:49:40.043Z,101000.44
2022-09-12T05:52:09.039Z,100993.03
2022-09-12T05:54:35.705Z,100999.19
2022-09-12T05:57:02.598Z,101006.56
2022-09-12T05:59:29.363Z,101000.00
2022-09-12T06:01:56.057Z,101001.50
2022-09-12T06:04:23.918Z,101007.00
2022-09-12T06:06:52.037Z,100996.84
2022-09-12T06:09:18.910Z,100996.84
2022-09-12T06:11:46.757Z,101002.53
2022-09-12T06:14:15.728Z,101010.56
2022-09-12T06:16:42.832Z,101012.50
2022-09-12T06:19:18.645Z,101008.66
2022-09-12T06:21:45.726Z,101012.28
2022-09-12T06:24:12.395Z,101018.63
2022-09-12T06:26:39.386Z,101009.09
2022-09-12T06:29:06.283Z,101025.16
2022-09-12T06:31:35.563Z,101020.13
2022-09-12T06:34:05.624Z,101024.34
2022-09-12T06:36:39.480Z,101022.00
2022-09-12T06:39:10.225Z,101033.66
2022-09-12T06:41:40.408Z,101029.81
2022-09-12T06:44:14.318Z,101028.78
2022-09-12T06:46:40.944Z,101026.69
2022-09-12T06:49:08.243Z,101023.72
2022-09-12T06:51:38.039Z,101030.75
2022-09-12T06:54:05.574Z,101026.91
2022-09-12T06:56:32.437Z,101026.50
2022-09-12T06:58:59.999Z,101027.13
2022-09-12T07:01:29.210Z,101027.78
2022-09-12T07:04:02.227Z,101037.69
2022-09-12T07:06:34.229Z,101038.78
2022-09-12T07:09:03.591Z,101041.53
2022-09-12T07:11:33.600Z,101042.16
2022-09-12T07:14:02.290Z,101044.69
2022-09-12T07:16:30.354Z,101055.69
2022-09-12T07:19:01.900Z,101049.75
2022-09-12T07:21:29.567Z,101056.53
2022-09-12T07:23:58.192Z,101045.13
2022-09-12T07:26:27.324Z,101049.13
2022-09-12T07:29:07.897Z,101043.84
2022-09-12T07:31:40.062Z,101048.50
2022-09-12T07:34:06.995Z,101049.78
2022-09-12T07:36:34.394Z,101054.63
2022-09-12T07:39:01.724Z,101062.00
2022-09-12T07:41:31.256Z,101054.38
2022-09-12T07:43:59.769Z,101058.59
2022-09-12T07:46:29.338Z,101059.63
2022-09-12T07:48:58.338Z,101062.63
2022-09-12T07:51:27.149Z,101056.22
2022-09-12T07:53:54.397Z,101055.16
2022-09-12T07:56:24.060Z,101060.88
2022-09-12T07:58:52.958Z,101066.81
2022-09-12T08:01:23.451Z,101067.47
2022-09-12T08:03:55.350Z,101061.72
2022-09-12T08:06:26.097Z,101062.78
2022-09-12T08:08:55.357Z,101066.78
2022-09-12T08:11:23.713Z,101067.22
2022-09-12T08:13:55.398Z,101066.34
2022-09-12T08:16:27.349Z,101057.63
2022-09-12T08:18:54.706Z,101067.16
2022-09-12T08:21:23.915Z,101066.09
2022-09-12T08:23:56.626Z,101069.28
2022-09-12T08:26:23.615Z,101073.06
2022-09-12T08:28:50.966Z,101070.25
2022-09-12T08:31:20.508Z,101067.06
2022-09-12T08:33:47.637Z,101069.16
2022-09-12T08:36:21.373Z,101075.28
2022-09-12T08:38:59.539Z,101071.03
2022-09-12T08:41:53.831Z,101072.72
2022-09-12T08:44:57.959Z,101070.41
2022-09-12T08:47:51.151Z,101074.22
2022-09-12T08:50:20.860Z,101082.50
2022-09-12T08:52:48.217Z,101084.00
2022-09-12T08:55:41.743Z,101088.69
2022-09-12T08:58:17.207Z,101088.50
2022-09-12T09:00:49.977Z,101097.22
2022-09-12T09:03:45.647Z,101093.84
2022-09-12T09:06:36.482Z,101105.47
2022-09-12T09:09:16.772Z,101101.00
2022-09-12T09:12:05.470Z,101102.03
2022-09-12T09:14:50.311Z,101100.53
2022-09-12T09:17:25.732Z,101099.00
2022-09-12T09:20:28.654Z,101105.50
2022-09-12T09:23:22.536Z,101101.78
2022-09-12T09:26:14.795Z,101104.56
2022-09-12T09:28:53.392Z,101095.34
2022-09-12T09:31:22.928Z,101101.91
2022-09-12T09:33:52.175Z,101102.59
2022-09-12T09:36:34.613Z,101101.31
2022-09-12T09:39:10.300Z,101104.88
2022-09-12T09:42:11.510Z,101107.06
2022-09-12T09:44:38.470Z,101108.38
2022-09-12T09:47:05.432Z,101113.97
2022-09-12T09:49:34.691Z,101118.53
2022-09-12T09:52:02.677Z,101121.59
2022-09-12T09:54:57.504Z,101120.59
2022-09-12T09:57:36.431Z,101117.19
2022-09-12T10:00:27.329Z,101128.22
2022-09-12T10:03:13.371Z,101128.91
2022-09-12T10:05:53.919Z,101131.25
2022-09-12T10:08:36.015Z,101131.31
2022-09-12T10:11:23.466Z,101127.94
2022-09-12T10:13:58.418Z,101137.31
2022-09-12T10:16:31.220Z,101137.19
2022-09-12T10:19:00.583Z,101129.59
2022-09-12T10:22:03.904Z,101128.81
2022-09-12T10:24:36.857Z,101132.34
2022-09-12T10:27:15.306Z,101134.66
2022-09-12T10:29:48.625Z,101141.22
2022-09-12T10:32:36.604Z,101137.44
2022-09-12T10:35:09.277Z,101146.97
2022-09-12T10:37:39.052Z,101146.41
2022-09-12T10:40:20.114Z,101149.41
2022-09-12T10:42:53.327Z,101153.47
2022-09-12T10:45:29.449Z,101157.56
2022-09-12T10:48:06.875Z,101156.72
2022-09-12T10:50:42.120Z,101164.38
2022-09-12T10:53:24.303Z,101160.72
2022-09-12T10:56:09.305Z,101157.50
2022-09-12T10:59:16.793Z,101156.09
2022-09-12T11:01:47.357Z,101151.88
2022-09-12T11:04:32.290Z,101154.63
2022-09-12T11:07:06.616Z,101159.75
2022-09-12T11:09:48.263Z,101171.06
2022-09-12T11:12:43.044Z,101166.44
2022-09-12T11:15:45.415Z,101163.69
2022-09-12T11:18:31.558Z,101163.00
2022-09-12T11:20:58.345Z,101158.75
2022-09-12T11:23:57.185Z,101168.50
2022-09-12T11:26:50.305Z,101167.25
2022-09-12T11:29:26.125Z,101166.88
2022-09-12T11:32:13.825Z,101163.31
2022-09-12T11:35:18.896Z,101170.09
2022-09-12T11:38:16.737Z,101177.69
2022-09-12T11:40:50.158Z,101178.06
2022-09-12T11:43:29.573Z,101182.50
2022-09-12T11:46:00.339Z,101186.06
2022-09-12T11:48:41.188Z,101180.75
2022-09-12T11:51:35.525Z,101174.59
2022-09-12T11:54:17.941Z,101182.72
2022-09-12T11:56:48.808Z,101173.63
2022-09-12T11:59:32.779Z,101176.22
2022-09-12T12:02:01.207Z,101188.13
2022-09-12T12:04:38.022Z,101185.63
2022-09-12T12:07:11.147Z,101182.03
2022-09-12T12:09:51.708Z,101176.75
2022-09-12T12:12:29.317Z,101175.06
2022-09-12T12:14:57.902Z,101181.22
2022-09-12T12:17:26.239Z,101180.13
2022-09-12T12:20:08.184Z,101180.34
2022-09-12T12:22:36.060Z,101183.09
2022-09-12T12:25:29.397Z,101177.81
2022-09-12T12:28:01.444Z,101179.94
2022-09-12T12:30:31.330Z,101186.94
2022-09-12T12:33:01.545Z,101181.59
2022-09-12T12:36:04.759Z,101186.50
2022-09-12T12:38:32.616Z,101183.50
2022-09-12T12:41:17.705Z,101187.31
2022-09-12T12:43:52.523Z,101194.69
2022-09-12T12:46:29.662Z,101199.13
2022-09-12T12:49:19.156Z,101205.03
2022-09-12T12:51:46.019Z,101213.50
2022-09-12T12:54:31.279Z,101208.41
2022-09-12T12:57:27.863Z,101202.84
2022-09-12T12:59:54.569Z,101203.03
2022-09-12T13:02:31.480Z,101214.25
2022-09-12T13:05:01.661Z,101210.66
2022-09-12T13:07:40.289Z,101212.19
2022-09-12T13:10:08.521Z,101218.81
2022-09-12T13:12:46.486Z,101210.78
2022-09-12T13:15:37.900Z,101226.69
2022-09-12T13:18:07.732Z,101226.88
2022-09-12T13:20:44.488Z,101230.53
2022-09-12T13:23:23.291Z,101229.69
2022-09-12T13:25:54.831Z,101229.69
2022-09-12T13:28:21.724Z,101228.81
2022-09-12T13:30:57.153Z,101234.16
2022-09-12T13:33:37.792Z,101221.66
2022-09-12T13:36:08.696Z,101224.59
2022-09-12T13:39:08.924Z,101223.94
2022-09-12T13:41:38.581Z,101229.00
2022-09-12T13:44:11.017Z,101226.03
2022-09-12T13:46:38.114Z,101222.41
2022-09-12T13:49:21.651Z,101224.53
2022-09-12T13:52:18.048Z,101230.66
2022-09-12T13:54:47.796Z,101237.66
2022-09-12T13:57:34.012Z,101226.03
2022-09-12T14:00:19.480Z,101234.50
2022-09-12T14:02:50.529Z,101233.66
2022-09-12T14:05:24.282Z,101239.00
2022-09-12T14:07:58.533Z,101241.53
2022-09-12T14:10:39.984Z,101237.09
2022-09-12T14:13:32.844Z,101240.09
2022-09-12T14:16:00.036Z,101231.63
2022-09-12T14:18:36.434Z,101230.13
2022-09-12T14:21:12.959Z,101233.13
2022-09-12T14:23:45.251Z,101227.59
2022-09-12T14:26:13.711Z,101232.88
2022-09-12T14:28:43.029Z,101230.13
2022-09-12T14:31:13.016Z,101233.06
2022-09-12T14:33:54.420Z,101234.38
2022-09-12T14:36:23.624Z,101238.63
2022-09-12T14:38:54.191Z,101241.78
2022-09-12T14:41:28.239Z,101241.16
2022-09-12T14:43:59.427Z,101244.34
2022-09-12T14:46:36.091Z,101242.66
2022-09-12T14:49:35.929Z,101236.09
2022-09-12T14:52:08.590Z,101238.41
2022-09-12T14:54:37.307Z,101245.84
2022-09-12T14:57:24.375Z,101241.16
2022-09-12T14:59:51.340Z,101248.38
2022-09-12T15:02:21.080Z,101251.34
2022-09-12T15:04:48.369Z,101243.25
2022-09-12T15:07:16.829Z,101250.25
2022-09-12T15:09:47.219Z,101257.69
2022-09-12T15:12:14.391Z,101255.53
2022-09-12T15:14:41.065Z,101257.72
2022-09-12T15:17:07.787Z,101255.16
2022-09-12T15:19:34.592Z,101258.78
2022-09-12T15:22:01.319Z,101256.84
2022-09-12T15:24:28.008Z,101263.81
2022-09-12T15:26:55.057Z,101269.75
2022-09-12T15:29:21.671Z,101268.28
2022-09-12T15:31:51.318Z,101266.56
2022-09-12T15:34:18.038Z,101262.53
2022-09-12T15:36:44.658Z,101262.31
2022-09-12T15:39:12.035Z,101263.16
2022-09-12T15:41:39.075Z,101267.63
2022-09-12T15:44:12.652Z,101266.16
2022-09-12T15:46:40.113Z,101262.34
2022-09-12T15:49:10.195Z,101265.72
2022-09-12T15:51:37.187Z,101269.53
2022-09-12T15:54:04.708Z,101264.88
2022-09-12T15:56:31.384Z,101274.16
2022-09-12T15:58:59.791Z,101269.50
2022-09-12T16:01:29.021Z,101263.38
2022-09-12T16:03:55.850Z,101267.19
2022-09-12T16:06:22.809Z,101268.22
2022-09-12T16:08:50.043Z,101264.84
2022-09-12T16:11:27.290Z,101266.94
2022-09-12T16:13:55.171Z,101269.69
2022-09-12T16:16:22.148Z,101270.97
2022-09-12T16:18:49.235Z,101270.56
2022-09-12T16:21:16.302Z,101269.94
2022-09-12T16:23:44.183Z,101278.41
2022-09-12T16:26:11.125Z,101265.06
2022-09-12T16:28:39.553Z,101270.81
2022-09-12T16:31:08.908Z,101283.50
2022-09-12T16:33:37.182Z,101279.47
2022-09-12T16:36:08.606Z,101280.97
2022-09-12T16:38:41.046Z,101278.81
2022-09-12T16:41:07.970Z,101280.09
2022-09-12T16:43:36.045Z,101280.94
2022-09-12T16:46:05.082Z,101282.63
2022-09-12T16:48:32.470Z,101287.91
2022-09-12T16:51:02.101Z,101287.69
2022-09-12T16:53:33.619Z,101280.06
2022-09-12T16:56:01.190Z,101274.56
2022-09-12T16:58:28.453Z,101274.97
2022-09-12T17:01:07.629Z,101278.78
2022-09-12T17:03:36.195Z,101282.59
2022-09-12T17:06:08.406Z,101284.31
2022-09-12T17:08:40.764Z,101282.19
2022-09-12T17:11:10.582Z,101286.19
2022-09-12T17:14:02.640Z,101284.72
2022-09-12T17:16:25.673Z,101288.28
2022-09-12T17:18:53.694Z,101291.88
2022-09-12T17:21:22.114Z,101288.06
2022-09-12T17:23:49.292Z,101293.75
2022-09-12T17:26:16.714Z,101285.47
2022-09-12T17:28:45.120Z,101295.19
2022-09-12T17:31:14.757Z,101291.16
2022-09-12T17:33:42.021Z,101294.31
2022-09-12T17:36:15.600Z,101290.09
2022-09-12T17:38:44.390Z,101302.34
2022-09-12T17:41:23.398Z,101298.28
2022-09-12T17:43:53.032Z,101302.09
2022-09-12T17:46:19.838Z,101308.81
2022-09-12T17:48:52.761Z,101312.44
2022-09-12T17:51:19.930Z,101307.59
2022-09-12T17:53:47.559Z,101315.00
2022-09-12T17:56:14.420Z,101318.75
2022-09-12T17:58:41.355Z,101313.69
2022-09-12T18:01:31.736Z,101310.25
2022-09-12T18:04:03.620Z,101318.28
2022-09-12T18:06:32.516Z,101322.50
2022-09-12T18:09:04.341Z,101328.19
2022-09-12T18:11:31.333Z,101326.69
2022-09-12T18:13:59.355Z,101318.66
2022-09-12T18:16:28.402Z,101327.31
2022-09-12T18:18:55.635Z,101330.25
2022-09-12T18:21:22.532Z,101330.44
2022-09-12T18:23:49.402Z,101342.50
2022-09-12T18:26:16.349Z,101342.72
2022-09-12T18:28:44.470Z,101344.81
2022-09-12T18:31:17.437Z,101342.25
2022-09-12T18:33:44.925Z,101349.66
2022-09-12T18:36:13.435Z,101342.66
2022-09-12T18:38:41.226Z,101353.19
2022-09-12T18:41:13.735Z,101352.56
2022-09-12T18:43:40.926Z,101361.19
2022-09-12T18:46:19.524Z,101356.09
2022-09-12T18:48:46.820Z,101351.00
2022-09-12T18:51:21.697Z,101353.94
2022-09-12T18:53:56.720Z,101348.66
2022-09-12T18:56:27.036Z,101353.47
2022-09-12T18:58:57.987Z,101352.66
2022-09-12T19:02:24.650Z,101365.53
2022-09-12T19:09:34.351Z,101366.84
2022-09-12T19:13:00.813Z,101375.94
2022-09-12T19:16:27.343Z,101382.66
2022-09-12T19:19:53.810Z,101384.78
2022-09-12T19:27:12.691Z,101385.56
2022-09-12T19:30:43.006Z,101393.53
2022-09-12T19:34:11.394Z,101399.81
2022-09-12T19:37:37.884Z,101407.53
2022-09-12T19:44:58.627Z,101420.84
2022-09-12T19:48:25.077Z,101427.22
2022-09-12T19:55:43.898Z,101436.97
2022-09-12T19:59:10.396Z,101430.94
2022-09-12T20:02:36.933Z,101446.28
2022-09-12T20:06:03.685Z,101454.91
2022-09-12T20:13:13.349Z,101451.56
2022-09-12T20:16:45.704Z,101457.63
2022-09-12T20:24:03.116Z,101464.59
2022-09-12T20:27:29.586Z,101455.44
2022-09-12T20:34:47.377Z,101447.66
2022-09-12T21:29:48.574Z,101477.81
2022-09-12T21:32:15.211Z,101483.09
2022-09-12T21:34:41.990Z,101483.59
2022-09-12T21:37:09.253Z,101493.16
2022-09-12T21:39:35.884Z,101501.19
2022-09-12T21:42:02.571Z,101493.16
2022-09-12T21:44:29.419Z,101494.75
2022-09-12T21:46:56.655Z,101500.31
2022-09-12T21:49:23.453Z,101496.75
2022-09-12T21:51:51.483Z,101492.84
2022-09-12T21:54:18.180Z,101489.13
2022-09-12T21:56:45.024Z,101495.69
2022-09-12T21:59:12.157Z,101497.28
2022-09-12T22:01:38.922Z,101498.88
2022-09-12T22:04:05.698Z,101506.44
2022-09-12T22:06:32.709Z,101505.91
2022-09-12T22:08:59.639Z,101503.56
2022-09-12T22:11:27.167Z,101516.41
2022-09-12T22:13:54.250Z,101513.84
2022-09-12T22:16:21.062Z,101511.81
2022-09-12T22:18:48.076Z,101512.72
2022-09-12T22:21:20.803Z,101517.03
2022-09-12T22:24:05.682Z,101516.72
2022-09-12T22:26:41.328Z,101513.47
2022-09-12T22:29:10.268Z,101525.81
2022-09-12T22:31:38.029Z,101518.50
2022-09-12T22:34:05.794Z,101523.47
2022-09-12T22:36:35.873Z,101513.91
2022-09-12T22:39:08.516Z,101525.41
2022-09-12T22:41:35.677Z,101524.88
2022-09-12T22:44:02.473Z,101528.16
2022-09-12T22:46:31.893Z,101527.66
2022-09-12T22:48:59.259Z,101533.47
2022-09-12T22:51:26.326Z,101529.56
2022-09-12T22:53:53.253Z,101533.69
2022-09-12T22:56:22.819Z,101536.25
2022-09-12T22:58:50.025Z,101538.16
2022-09-12T23:01:17.349Z,101543.06
2022-09-12T23:03:47.931Z,101536.25
2022-09-12T23:06:14.772Z,101544.13
2022-09-12T23:08:41.579Z,101546.16
2022-09-12T23:11:14.332Z,101539.34
2022-09-12T23:13:45.055Z,101553.19
2022-09-12T23:16:20.748Z,101548.91
2022-09-12T23:18:48.662Z,101553.72
2022-09-12T23:21:17.508Z,101552.16
2022-09-12T23:23:44.798Z,101550.63
2022-09-12T23:26:17.409Z,101553.72
2022-09-12T23:28:52.970Z,101553.06
2022-09-12T23:31:22.715Z,101553.38
2022-09-12T23:33:52.245Z,101554.41
2022-09-12T23:36:19.387Z,101556.44
2022-09-12T23:38:46.865Z,101551.34
2022-09-12T23:41:15.318Z,101553.22
2022-09-12T23:43:43.425Z,101552.53
2022-09-12T23:46:10.284Z,101546.56
2022-09-12T23:48:37.395Z,101546.72
2022-09-12T23:51:04.287Z,101542.59
2022-09-12T23:53:31.257Z,101540.06
2022-09-12T23:55:58.916Z,101538.84
2022-09-12T23:58:28.254Z,101538.38
